Ciel couvert
Couvert avec pluie légère
Variable avec cirrus et quelques nuages d'orage possibles
Couvert avec pluie légère
Partiellement nuageux avec quelques cirrus
Couvert avec pluie légère
Couvert avec pluie légère
(°C)
14°
14°
13°
13°
13°
13°
13°
13°
13°
13°
13°
13°
13°
13°
(°C)
12°
12°
12°
12°
11°
11°
11°
SSO
SSO
S
SSO
SO
SSO
SO
(km/h)
11-26
11-23
11-21
12-22
13-21
14-24
13-24
(mm)
0
0
0
0.2
0
0.1
0.2
(%)
87
65
59
53
65
70
76

Élévation du soleil

/ -1.5°
sun-icon
UV 4
06:20
21:30
Gibbeuse croissante (145°)
18:30
04:44

METAR pour Dirac (LFBU)

Heure Conditions Température/
Point de rosée
Vent Visibilité Météo Nuages Pression Changement Brut
MVFR 14°C / 12°C 190º variable 160º to 230º 6kt 9700m - Broken Clouds 1200ft
Overcast 2400ft
1008 Temporary: Visibility 3000. Showers Rain . Broken Clouds 300ft. Broken Clouds 2000ft. Towering Cumulus LFBU 201900Z AUTO 19006KT 160V230 9999 BKN012/// OVC024/// ///TCU 14/12 Q1008 TEMPO 3000 SHRA BKN003 BKN020TCU
MVFR 14°C / 12°C 190º variable 140º to 230º 5kt 9700m - Broken Clouds 1300ft
Overcast 1900ft
1008 Temporary: Visibility 3000. Showers Rain . Broken Clouds 300ft. Broken Clouds 2000ft. Towering Cumulus LFBU 201830Z AUTO 19005KT 140V230 9999 BKN013/// OVC019/// ///TCU 14/12 Q1008 TEMPO 3000 SHRA BKN003 BKN020TCU
MVFR 14°C / 12°C 190º variable 160º to 240º 7kt 9700m - Scattered Clouds 1400ft
Broken Clouds 2400ft
Broken Clouds 3400ft
1008 Temporary: Visibility 3000. Showers Rain . Broken Clouds 300ft. Broken Clouds 2000ft. Towering Cumulus LFBU 201800Z AUTO 19007KT 160V240 9999 SCT014/// BKN024/// BKN034/// ///TCU 14/12 Q1008 TEMPO 3000 SHRA BKN003 BKN020TCU
MVFR 14°C / 12°C 190º variable 130º to 240º 8kt 9700m - Broken Clouds 1600ft
Broken Clouds 2200ft
Overcast 3200ft
1008 Temporary: Visibility 1200. Thunderstorm Rain . Broken Clouds 500ft. Broken Clouds 1500ft. Cumulonimbus LFBU 201730Z AUTO 19008KT 130V240 9999 BKN016 BKN022 OVC032 14/12 Q1008 TEMPO 1200 TSRA BKN005 BKN015CB
MVFR 15°C / 12°C 180º variable 150º to 220º 6kt 9700m - Broken Clouds 1500ft
Broken Clouds 2100ft
Broken Clouds 2900ft
1008 Temporary: Visibility 1200. Thunderstorm Rain . Broken Clouds 500ft. Broken Clouds 1500ft. Cumulonimbus LFBU 201700Z AUTO 18006KT 150V220 9999 BKN015/// BKN021/// BKN029/// ///TCU 15/12 Q1008 TEMPO 1200 TSRA BKN005 BKN015CB
MVFR 15°C / 12°C 200º variable 150º to 230º 7kt 9700m - Broken Clouds 1800ft
Overcast 2600ft
1008 Temporary: Visibility 1200. Thunderstorm Rain . Broken Clouds 500ft. Broken Clouds 1500ft. Cumulonimbus LFBU 201630Z AUTO 20007KT 150V230 9999 BKN018/// OVC026/// ///CB 15/12 Q1008 TEMPO 1200 TSRA BKN005 BKN015CB
VFR 15°C / 13°C 200º 9kt 9700m - Few Clouds 1900ft
Scattered Clouds 2500ft
Broken Clouds 3700ft
1008 Temporary: Visibility 1200. Thunderstorm Rain . Broken Clouds 500ft. Broken Clouds 1500ft. Cumulonimbus LFBU 201600Z AUTO 20009KT 9999 FEW019/// SCT025/// BKN037/// ///CB 15/13 Q1008 TEMPO 1200 TSRA BKN005 BKN015CB
MVFR 16°C / 13°C 2kt 9700m - Few Clouds 1300ft
Broken Clouds 2100ft
Broken Clouds 2600ft
1008 Temporary: Visibility 1200. Thunderstorm Rain . Broken Clouds 500ft. Broken Clouds 1500ft. Cumulonimbus LFBU 201530Z AUTO VRB02KT 9999 FEW013/// BKN021/// BKN026/// ///CB 16/13 Q1008 TEMPO 1200 TSRA BKN005 BKN015CB
MVFR 15°C / 13°C 3kt 9700m - Broken Clouds 1700ft
Overcast 2600ft
1008 Temporary: Visibility 1200. Thunderstorm Rain . Broken Clouds 500ft. Broken Clouds 1500ft. Cumulonimbus LFBU 201500Z AUTO VRB03KT 9999 BKN017/// OVC026/// ///CB 15/13 Q1008 TEMPO 1200 TSRA BKN005 BKN015CB
MVFR 14°C / 13°C 2kt 8000m Light Thunderstorm Rain 3.00mm precipitation Few Clouds 1400ft
Broken Clouds 2100ft
Broken Clouds 4500ft
1008 Temporary: Visibility 1200. Thunderstorm Rain . Broken Clouds 500ft. Broken Clouds 1500ft. Cumulonimbus LFBU 201430Z AUTO VRB02KT 8000 -TSRA FEW014/// BKN021/// BKN045/// ///CB 14/13 Q1008 TEMPO 1200 TSRA BKN005 BKN015CB
MVFR 14°C / 13°C 3kt 8000m Light Rain in the Vicinity Thunderstorm 1.00mm precipitation Few Clouds 1000ft
Broken Clouds 6200ft
Overcast 7600ft
1008 Temporary: Visibility 1200. Thunderstorm Rain . Broken Clouds 500ft. Broken Clouds 1500ft. Cumulonimbus LFBU 201400Z AUTO VRB03KT 8000 -RA VCTS FEW010/// BKN062/// OVC076/// ///CB 14/13 Q1008 TEMPO 1200 TSRA BKN005 BKN015CB
MVFR 15°C / 13°C 100º variable 070º to 180º 5kt 9700m. Runway 28: Visual range is 1900m and decreasing. patches Fog Heavy Rain 7.00mm precipitation Scattered Clouds 700ft
Scattered Clouds 1100ft
Broken Clouds 2300ft
1008 Temporary: Visibility 1200. Thunderstorm Rain . Broken Clouds 500ft. Broken Clouds 1500ft. Cumulonimbus LFBU 201330Z AUTO 10005KT 070V180 9999 0900 R28/1900D +RA BCFG SCT007/// SCT011/// BKN023/// ///CB 15/13 Q1008 TEMPO 1200 TSRA BKN005 BKN015CB
VFR 16°C / 13°C 100º variable 070º to 130º 4kt 9700m - Scattered Clouds 2700ft
Broken Clouds 6800ft
Broken Clouds 9600ft
1008 Temporary: Visibility 3000. Showers Rain . Broken Clouds 500ft. Broken Clouds 2000ft. Towering Cumulus LFBU 201300Z AUTO 10004KT 070V130 9999 SCT027/// BKN068/// BKN096/// ///CB 16/13 Q1008 TEMPO 3000 SHRA BKN005 BKN020TCU
VFR 15°C / 13°C 3kt 9700m Light Rain 1.00mm precipitation Few Clouds 2300ft
Scattered Clouds 4100ft
Broken Clouds 7400ft
1009 Temporary: Visibility 3000. Showers Rain . Broken Clouds 500ft. Broken Clouds 2000ft. Towering Cumulus LFBU 201230Z AUTO VRB03KT 9999 -RA FEW023/// SCT041/// BKN074/// ///CB 15/13 Q1009 TEMPO 3000 SHRA BKN005 BKN020TCU
MVFR 15°C / 13°C 160º variable 050º to 210º 4kt 9700m Light Rain 1.00mm precipitation Broken Clouds 1900ft
Broken Clouds 4600ft
Overcast 6800ft
1009 Temporary: Visibility 3000. Showers Rain . Broken Clouds 500ft. Broken Clouds 2000ft. Towering Cumulus LFBU 201200Z AUTO 16004KT 050V210 9999 -RA BKN019/// BKN046/// OVC068/// ///CB 15/13 Q1009 TEMPO 3000 SHRA BKN005 BKN020TCU
MVFR 16°C / 12°C 220º variable 150º to 260º 5kt 9700m - Broken Clouds 1800ft
Broken Clouds 4500ft
Overcast 7000ft
1009 Temporary: Visibility 3000. Showers Rain . Broken Clouds 500ft. Broken Clouds 2000ft. Towering Cumulus LFBU 201130Z AUTO 22005KT 150V260 9999 BKN018/// BKN045/// OVC070/// ///CB 16/12 Q1009 TEMPO 3000 SHRA BKN005 BKN020TCU
VFR 16°C / 12°C 220º variable 190º to 250º 5kt 9700m - Few Clouds 1600ft
Scattered Clouds 3900ft
Broken Clouds 4900ft
1009 Temporary: Visibility 3000. Showers Rain . Broken Clouds 500ft. Broken Clouds 2000ft. Towering Cumulus LFBU 201100Z AUTO 22005KT 190V250 9999 FEW016/// SCT039/// BKN049/// ///CB 16/12 Q1009 TEMPO 3000 SHRA BKN005 BKN020TCU
MVFR 15°C / 12°C 220º variable 190º to 260º 5kt 9700m - Broken Clouds 1600ft
Broken Clouds 2300ft
Broken Clouds 2800ft
1009 Temporary: Visibility 3000. Showers Rain . Broken Clouds 500ft. Broken Clouds 2000ft. Towering Cumulus LFBU 201030Z AUTO 22005KT 190V260 9999 BKN016/// BKN023/// BKN028/// ///CB 15/12 Q1009 TEMPO 3000 SHRA BKN005 BKN020TCU
MVFR 15°C / 13°C 230º variable 190º to 270º 5kt 9700m - Broken Clouds 1200ft
Broken Clouds 2000ft
Overcast 3600ft
1009 Temporary: Visibility 3000. Showers Rain . Broken Clouds 500ft. Broken Clouds 2000ft. Towering Cumulus LFBU 201000Z AUTO 23005KT 190V270 9999 BKN012/// BKN020/// OVC036/// ///TCU 15/13 Q1009 TEMPO 3000 SHRA BKN005 BKN020TCU
IFR 14°C / 13°C 220º variable 190º to 250º 3kt 9700m - Overcast 700ft 1009 Temporary: Visibility 3000. Showers Rain . LFBU 200930Z AUTO 22003KT 190V250 9999 OVC007/// ///TCU 14/13 Q1009 TEMPO 3000 SHRA
IFR 14°C / 13°C 210º variable 180º to 250º 4kt 9700m - Broken Clouds 500ft
Broken Clouds 3600ft
Overcast 7400ft
1009 Temporary: Visibility 3000. Showers Rain . Broken Clouds 2000ft. Towering Cumulus LFBU 200900Z AUTO 21004KT 180V250 9999 BKN005/// BKN036/// OVC074/// ///CB 14/13 Q1009 TEMPO 3000 SHRA BKN020TCU
LIFR 13°C / 13°C 170º variable 130º to 210º 3kt 9700m Light Rain 1.00mm precipitation Broken Clouds 400ft
Broken Clouds 800ft
Broken Clouds 2800ft
1009 Temporary: Visibility 3000. Showers Rain . Broken Clouds 2000ft. Towering Cumulus LFBU 200830Z AUTO 17003KT 130V210 9999 -RA BKN004/// BKN008/// BKN028/// ///CB 13/13 Q1009 TEMPO 3000 SHRA BKN020TCU
VFR 13°C / 13°C 1kt 9700m Light Rain 1.00mm precipitation Few Clouds 300ft
Scattered Clouds 1700ft
Overcast 6000ft
1009 Temporary: Visibility 3000. Showers Rain . LFBU 200800Z AUTO VRB01KT 9999 -RA FEW003/// SCT017/// OVC060/// ///CB 13/13 Q1009 TEMPO 3000 SHRA
LIFR 13°C / 13°C 3kt 9700m - Broken Clouds 200ft
Overcast 1300ft
1009 Temporary: Visibility 3000. Showers Rain . Broken Clouds 2000ft. Towering Cumulus LFBU 200730Z AUTO VRB03KT 9999 BKN002/// OVC013/// ///CB 13/13 Q1009 TEMPO 3000 SHRA BKN020TCU

MVFR

14°C / 12°C

[Plus]
Vent 190º variable 160º to 230º 6kt
Visibilité 9700m
Météo -
Nuages Broken Clouds 1200ft
Overcast 2400ft
Pression 1008
Changement Temporary: Visibility 3000. Showers Rain . Broken Clouds 300ft. Broken Clouds 2000ft. Towering Cumulus
Brut LFBU 201900Z AUTO 19006KT 160V230 9999 BKN012/// OVC024/// ///TCU 14/12 Q1008 TEMPO 3000 SHRA BKN003 BKN020TCU

MVFR

14°C / 12°C

[Plus]
Vent 190º variable 140º to 230º 5kt
Visibilité 9700m
Météo -
Nuages Broken Clouds 1300ft
Overcast 1900ft
Pression 1008
Changement Temporary: Visibility 3000. Showers Rain . Broken Clouds 300ft. Broken Clouds 2000ft. Towering Cumulus
Brut LFBU 201830Z AUTO 19005KT 140V230 9999 BKN013/// OVC019/// ///TCU 14/12 Q1008 TEMPO 3000 SHRA BKN003 BKN020TCU

MVFR

14°C / 12°C

[Plus]
Vent 190º variable 160º to 240º 7kt
Visibilité 9700m
Météo -
Nuages Scattered Clouds 1400ft
Broken Clouds 2400ft
Broken Clouds 3400ft
Pression 1008
Changement Temporary: Visibility 3000. Showers Rain . Broken Clouds 300ft. Broken Clouds 2000ft. Towering Cumulus
Brut LFBU 201800Z AUTO 19007KT 160V240 9999 SCT014/// BKN024/// BKN034/// ///TCU 14/12 Q1008 TEMPO 3000 SHRA BKN003 BKN020TCU

MVFR

14°C / 12°C

[Plus]
Vent 190º variable 130º to 240º 8kt
Visibilité 9700m
Météo -
Nuages Broken Clouds 1600ft
Broken Clouds 2200ft
Overcast 3200ft
Pression 1008
Changement Temporary: Visibility 1200. Thunderstorm Rain . Broken Clouds 500ft. Broken Clouds 1500ft. Cumulonimbus
Brut LFBU 201730Z AUTO 19008KT 130V240 9999 BKN016 BKN022 OVC032 14/12 Q1008 TEMPO 1200 TSRA BKN005 BKN015CB

MVFR

15°C / 12°C

[Plus]
Vent 180º variable 150º to 220º 6kt
Visibilité 9700m
Météo -
Nuages Broken Clouds 1500ft
Broken Clouds 2100ft
Broken Clouds 2900ft
Pression 1008
Changement Temporary: Visibility 1200. Thunderstorm Rain . Broken Clouds 500ft. Broken Clouds 1500ft. Cumulonimbus
Brut LFBU 201700Z AUTO 18006KT 150V220 9999 BKN015/// BKN021/// BKN029/// ///TCU 15/12 Q1008 TEMPO 1200 TSRA BKN005 BKN015CB

MVFR

15°C / 12°C

[Plus]
Vent 200º variable 150º to 230º 7kt
Visibilité 9700m
Météo -
Nuages Broken Clouds 1800ft
Overcast 2600ft
Pression 1008
Changement Temporary: Visibility 1200. Thunderstorm Rain . Broken Clouds 500ft. Broken Clouds 1500ft. Cumulonimbus
Brut LFBU 201630Z AUTO 20007KT 150V230 9999 BKN018/// OVC026/// ///CB 15/12 Q1008 TEMPO 1200 TSRA BKN005 BKN015CB

VFR

15°C / 13°C

[Plus]
Vent 200º 9kt
Visibilité 9700m
Météo -
Nuages Few Clouds 1900ft
Scattered Clouds 2500ft
Broken Clouds 3700ft
Pression 1008
Changement Temporary: Visibility 1200. Thunderstorm Rain . Broken Clouds 500ft. Broken Clouds 1500ft. Cumulonimbus
Brut LFBU 201600Z AUTO 20009KT 9999 FEW019/// SCT025/// BKN037/// ///CB 15/13 Q1008 TEMPO 1200 TSRA BKN005 BKN015CB

MVFR

16°C / 13°C

[Plus]
Vent 2kt
Visibilité 9700m
Météo -
Nuages Few Clouds 1300ft
Broken Clouds 2100ft
Broken Clouds 2600ft
Pression 1008
Changement Temporary: Visibility 1200. Thunderstorm Rain . Broken Clouds 500ft. Broken Clouds 1500ft. Cumulonimbus
Brut LFBU 201530Z AUTO VRB02KT 9999 FEW013/// BKN021/// BKN026/// ///CB 16/13 Q1008 TEMPO 1200 TSRA BKN005 BKN015CB

MVFR

15°C / 13°C

[Plus]
Vent 3kt
Visibilité 9700m
Météo -
Nuages Broken Clouds 1700ft
Overcast 2600ft
Pression 1008
Changement Temporary: Visibility 1200. Thunderstorm Rain . Broken Clouds 500ft. Broken Clouds 1500ft. Cumulonimbus
Brut LFBU 201500Z AUTO VRB03KT 9999 BKN017/// OVC026/// ///CB 15/13 Q1008 TEMPO 1200 TSRA BKN005 BKN015CB

MVFR

14°C / 13°C

[Plus]
Vent 2kt
Visibilité 8000m
Météo Light Thunderstorm Rain 3.00mm precipitation
Nuages Few Clouds 1400ft
Broken Clouds 2100ft
Broken Clouds 4500ft
Pression 1008
Changement Temporary: Visibility 1200. Thunderstorm Rain . Broken Clouds 500ft. Broken Clouds 1500ft. Cumulonimbus
Brut LFBU 201430Z AUTO VRB02KT 8000 -TSRA FEW014/// BKN021/// BKN045/// ///CB 14/13 Q1008 TEMPO 1200 TSRA BKN005 BKN015CB

MVFR

14°C / 13°C

[Plus]
Vent 3kt
Visibilité 8000m
Météo Light Rain in the Vicinity Thunderstorm 1.00mm precipitation
Nuages Few Clouds 1000ft
Broken Clouds 6200ft
Overcast 7600ft
Pression 1008
Changement Temporary: Visibility 1200. Thunderstorm Rain . Broken Clouds 500ft. Broken Clouds 1500ft. Cumulonimbus
Brut LFBU 201400Z AUTO VRB03KT 8000 -RA VCTS FEW010/// BKN062/// OVC076/// ///CB 14/13 Q1008 TEMPO 1200 TSRA BKN005 BKN015CB

MVFR

15°C / 13°C

[Plus]
Vent 100º variable 070º to 180º 5kt
Visibilité 9700m. Runway 28: Visual range is 1900m and decreasing.
Météo patches Fog Heavy Rain 7.00mm precipitation
Nuages Scattered Clouds 700ft
Scattered Clouds 1100ft
Broken Clouds 2300ft
Pression 1008
Changement Temporary: Visibility 1200. Thunderstorm Rain . Broken Clouds 500ft. Broken Clouds 1500ft. Cumulonimbus
Brut LFBU 201330Z AUTO 10005KT 070V180 9999 0900 R28/1900D +RA BCFG SCT007/// SCT011/// BKN023/// ///CB 15/13 Q1008 TEMPO 1200 TSRA BKN005 BKN015CB

VFR

16°C / 13°C

[Plus]
Vent 100º variable 070º to 130º 4kt
Visibilité 9700m
Météo -
Nuages Scattered Clouds 2700ft
Broken Clouds 6800ft
Broken Clouds 9600ft
Pression 1008
Changement Temporary: Visibility 3000. Showers Rain . Broken Clouds 500ft. Broken Clouds 2000ft. Towering Cumulus
Brut LFBU 201300Z AUTO 10004KT 070V130 9999 SCT027/// BKN068/// BKN096/// ///CB 16/13 Q1008 TEMPO 3000 SHRA BKN005 BKN020TCU

VFR

15°C / 13°C

[Plus]
Vent 3kt
Visibilité 9700m
Météo Light Rain 1.00mm precipitation
Nuages Few Clouds 2300ft
Scattered Clouds 4100ft
Broken Clouds 7400ft
Pression 1009
Changement Temporary: Visibility 3000. Showers Rain . Broken Clouds 500ft. Broken Clouds 2000ft. Towering Cumulus
Brut LFBU 201230Z AUTO VRB03KT 9999 -RA FEW023/// SCT041/// BKN074/// ///CB 15/13 Q1009 TEMPO 3000 SHRA BKN005 BKN020TCU

MVFR

15°C / 13°C

[Plus]
Vent 160º variable 050º to 210º 4kt
Visibilité 9700m
Météo Light Rain 1.00mm precipitation
Nuages Broken Clouds 1900ft
Broken Clouds 4600ft
Overcast 6800ft
Pression 1009
Changement Temporary: Visibility 3000. Showers Rain . Broken Clouds 500ft. Broken Clouds 2000ft. Towering Cumulus
Brut LFBU 201200Z AUTO 16004KT 050V210 9999 -RA BKN019/// BKN046/// OVC068/// ///CB 15/13 Q1009 TEMPO 3000 SHRA BKN005 BKN020TCU

MVFR

16°C / 12°C

[Plus]
Vent 220º variable 150º to 260º 5kt
Visibilité 9700m
Météo -
Nuages Broken Clouds 1800ft
Broken Clouds 4500ft
Overcast 7000ft
Pression 1009
Changement Temporary: Visibility 3000. Showers Rain . Broken Clouds 500ft. Broken Clouds 2000ft. Towering Cumulus
Brut LFBU 201130Z AUTO 22005KT 150V260 9999 BKN018/// BKN045/// OVC070/// ///CB 16/12 Q1009 TEMPO 3000 SHRA BKN005 BKN020TCU

VFR

16°C / 12°C

[Plus]
Vent 220º variable 190º to 250º 5kt
Visibilité 9700m
Météo -
Nuages Few Clouds 1600ft
Scattered Clouds 3900ft
Broken Clouds 4900ft
Pression 1009
Changement Temporary: Visibility 3000. Showers Rain . Broken Clouds 500ft. Broken Clouds 2000ft. Towering Cumulus
Brut LFBU 201100Z AUTO 22005KT 190V250 9999 FEW016/// SCT039/// BKN049/// ///CB 16/12 Q1009 TEMPO 3000 SHRA BKN005 BKN020TCU

MVFR

15°C / 12°C

[Plus]
Vent 220º variable 190º to 260º 5kt
Visibilité 9700m
Météo -
Nuages Broken Clouds 1600ft
Broken Clouds 2300ft
Broken Clouds 2800ft
Pression 1009
Changement Temporary: Visibility 3000. Showers Rain . Broken Clouds 500ft. Broken Clouds 2000ft. Towering Cumulus
Brut LFBU 201030Z AUTO 22005KT 190V260 9999 BKN016/// BKN023/// BKN028/// ///CB 15/12 Q1009 TEMPO 3000 SHRA BKN005 BKN020TCU

MVFR

15°C / 13°C

[Plus]
Vent 230º variable 190º to 270º 5kt
Visibilité 9700m
Météo -
Nuages Broken Clouds 1200ft
Broken Clouds 2000ft
Overcast 3600ft
Pression 1009
Changement Temporary: Visibility 3000. Showers Rain . Broken Clouds 500ft. Broken Clouds 2000ft. Towering Cumulus
Brut LFBU 201000Z AUTO 23005KT 190V270 9999 BKN012/// BKN020/// OVC036/// ///TCU 15/13 Q1009 TEMPO 3000 SHRA BKN005 BKN020TCU

IFR

14°C / 13°C

[Plus]
Vent 220º variable 190º to 250º 3kt
Visibilité 9700m
Météo -
Nuages Overcast 700ft
Pression 1009
Changement Temporary: Visibility 3000. Showers Rain .
Brut LFBU 200930Z AUTO 22003KT 190V250 9999 OVC007/// ///TCU 14/13 Q1009 TEMPO 3000 SHRA

IFR

14°C / 13°C

[Plus]
Vent 210º variable 180º to 250º 4kt
Visibilité 9700m
Météo -
Nuages Broken Clouds 500ft
Broken Clouds 3600ft
Overcast 7400ft
Pression 1009
Changement Temporary: Visibility 3000. Showers Rain . Broken Clouds 2000ft. Towering Cumulus
Brut LFBU 200900Z AUTO 21004KT 180V250 9999 BKN005/// BKN036/// OVC074/// ///CB 14/13 Q1009 TEMPO 3000 SHRA BKN020TCU

LIFR

13°C / 13°C

[Plus]
Vent 170º variable 130º to 210º 3kt
Visibilité 9700m
Météo Light Rain 1.00mm precipitation
Nuages Broken Clouds 400ft
Broken Clouds 800ft
Broken Clouds 2800ft
Pression 1009
Changement Temporary: Visibility 3000. Showers Rain . Broken Clouds 2000ft. Towering Cumulus
Brut LFBU 200830Z AUTO 17003KT 130V210 9999 -RA BKN004/// BKN008/// BKN028/// ///CB 13/13 Q1009 TEMPO 3000 SHRA BKN020TCU

VFR

13°C / 13°C

[Plus]
Vent 1kt
Visibilité 9700m
Météo Light Rain 1.00mm precipitation
Nuages Few Clouds 300ft
Scattered Clouds 1700ft
Overcast 6000ft
Pression 1009
Changement Temporary: Visibility 3000. Showers Rain .
Brut LFBU 200800Z AUTO VRB01KT 9999 -RA FEW003/// SCT017/// OVC060/// ///CB 13/13 Q1009 TEMPO 3000 SHRA

LIFR

13°C / 13°C

[Plus]
Vent 3kt
Visibilité 9700m
Météo -
Nuages Broken Clouds 200ft
Overcast 1300ft
Pression 1009
Changement Temporary: Visibility 3000. Showers Rain . Broken Clouds 2000ft. Towering Cumulus
Brut LFBU 200730Z AUTO VRB03KT 9999 BKN002/// OVC013/// ///CB 13/13 Q1009 TEMPO 3000 SHRA BKN020TCU

TAF pour Dirac (LFBU)

From till


From till Wind 190º 10kt. Visibility 9700m. Broken Clouds 2000ft.
Temporarly from till Visibility 3000m. Showers Rain . Broken Clouds 300ft. Broken Clouds 2000ft.
With 30% probability, Temporarly from till Light Rain . Broken Clouds 1000ft.

Brut: TAF LFBU 201700Z 2018/2118 19010KT 9999 BKN020 TEMPO 2018/2112 3000 SHRA BKN003 BKN020TCU PROB30 TEMPO 2112/2118 -RA BKN010

Radar et prévision de précipitation à court terme pour Dirac

Bruine
Légère
Modéré
Fort
Très fort
Grêle

Le marqueur est placé sur Dirac. Cette animation montre le radar des précipitations pour la plage horaire sélectionnée, ainsi qu'une 2h prévision. Les croix orange indiquent la foudre. Données fournies par nowcast.de (disponibles aux États-Unis, en Europe et en Australie). Une bruine ou une légère chute de neige peut être invisible pour le radar. L'intensité des précipitations est codée par couleur, allant du turquoise au rouge.

Les images satellites et les pluies actuelles pour Dirac, France

Le marqueur est placé sur Dirac. [Plus]

L'image satellite en temps réel combine la lumière visible pendant la journée et le rayonnement infrarouge pendant la nuit. La nuit, l'image n'est pas sombre car le rayonnement infrarouge permet de détecter les différences de température. Malheureusement, les nuages bas et le brouillard sont difficiles à distinguer des températures au sol et peuvent donc être presque invisibles pendant la nuit. Les images des satellites Météosat pour l'Europe sont mises à jour en temps réel toutes les 5 minutes. Les images GOES-16/GOES-17 (Amérique du Nord et du Sud) et Himawari (Asie) sont mises à jour toutes les 10 minutes.

Les précipitations sont estimées à partir de radars et de satellites. Les estimations des précipitations par satellite sont moins précises la nuit que le jour.

© 2024 meteoblue, NOAA Satellites GOES-16 and EUMETSAT. Données de foudre fournies par nowcast.

Retour vers le haut
×
Salut,
Il semble que vous utilisiez un logiciel antipub.

La publicité est essentielle pour maintenir notre site web gratuit avec des détails et précision uniques.

Veuillez mettre www.meteoblue.com sur la liste blanche de votre bloqueur de publicité ou envisager d'acheter l'un de nos produits :

Vous avez déjà un abonnement ?
Dans ce cas, veuillez vous connecter.